Time;durP1;ratioP1;P1;durP2;ratioP2;P2;SDS_P1;SDS_P2;PMS_P1;PMS_P2;Temp;Humidity;BMP_temperature;BMP_pressure;BME280_temperature;BME280_humidity;BME280_pressure;Samples;Min_cycle;Max_cycle;Signal;HPM_P1;HPM_P2
2023/10/02 00:01:21;;;;;;;;;;;;;;;21.69;30.54;98242.53;4990919;28;1115;-77
2023/10/02 00:03:48;;;;;;;;;;;;;;;21.31;31.29;98235.28;4976857;28;1013;-78
2023/10/02 00:06:16;;;;;;;;;;;;;;;21.33;31.15;98238.44;4984870;28;1079;-77
2023/10/02 00:08:49;;;;;;;;;;;;;;;21.30;31.30;98245.00;5012403;28;1163;-78
2023/10/02 00:11:35;;;;;;;;;;;;;;;21.28;31.29;98241.75;4965115;28;972;-78
2023/10/02 00:14:18;;;;;;;;;;;;;;;21.43;31.14;98224.50;4996117;28;1224;-77
2023/10/02 00:16:59;;;;;;;;;;;;;;;21.78;30.52;98240.69;4962924;28;1255;-78
2023/10/02 00:19:33;;;;;;;;;;;;;;;21.51;31.07;98232.41;4976957;28;1090;-77
2023/10/02 00:22:05;;;;;;;;;;;;;;;21.44;31.04;98237.41;4976537;28;935;-77
2023/10/02 00:24:32;;;;;;;;;;;;;;;21.38;31.24;98236.34;4960403;28;1015;-77
2023/10/02 00:26:57;;;;;;;;;;;;;;;21.49;30.72;98240.53;4960568;28;968;-77
2023/10/02 00:29:23;;;;;;;;;;;;;;;21.20;31.34;98234.69;4976601;28;930;-77
2023/10/02 00:31:50;;;;;;;;;;;;;;;21.46;30.67;98238.59;4985594;28;1979;-78
2023/10/02 00:34:16;;;;;;;;;;;;;;;21.31;31.10;98235.28;4999163;28;1146;-77
2023/10/02 00:36:42;;;;;;;;;;;;;;;21.42;30.85;98237.06;4999020;28;1278;-77
2023/10/02 00:39:30;;;;;;;;;;;;;;;21.66;30.59;98244.22;4983070;28;1271;-77
2023/10/02 00:44:55;;;;;;;;;;;;;;;21.40;31.05;98234.69;5001390;28;1291;-78
2023/10/02 00:47:36;;;;;;;;;;;;;;;21.20;31.20;98240.34;5014151;28;1025;-78
2023/10/02 00:50:08;;;;;;;;;;;;;;;21.25;31.29;98242.66;4995345;28;958;-77
2023/10/02 00:52:40;;;;;;;;;;;;;;;21.35;31.08;98235.19;4979990;28;1981;-77
2023/10/02 00:55:07;;;;;;;;;;;;;;;21.35;31.15;98228.72;4979778;28;936;-78
2023/10/02 00:57:35;;;;;;;;;;;;;;;21.33;30.78;98238.44;4979552;28;876;-78
2023/10/02 01:00:06;;;;;;;;;;;;;;;21.43;30.83;98236.63;4979311;28;999;-78
2023/10/02 01:02:34;;;;;;;;;;;;;;;21.47;30.68;98236.56;4978694;28;1109;-77
2023/10/02 01:05:00;;;;;;;;;;;;;;;21.29;30.93;98243.34;4944096;28;1070;-77
2023/10/02 01:07:25;;;;;;;;;;;;;;;21.20;31.07;98229.03;4943901;28;1180;-77
2023/10/02 01:10:07;;;;;;;;;;;;;;;21.33;30.71;98232.78;4959598;28;1125;-77
2023/10/02 01:12:43;;;;;;;;;;;;;;;21.37;31.04;98231.94;4991904;28;1906;-78
2023/10/02 01:15:12;;;;;;;;;;;;;;;21.05;31.38;98236.22;4978987;28;1238;-78
2023/10/02 01:17:39;;;;;;;;;;;;;;;21.25;31.21;98231.34;4962860;28;1144;-77
2023/10/02 01:20:12;;;;;;;;;;;;;;;21.35;30.87;98234.38;4966759;28;1238;-77
2023/10/02 01:22:44;;;;;;;;;;;;;;;21.27;31.14;98223.19;4998975;28;956;-78
2023/10/02 01:25:13;;;;;;;;;;;;;;;21.18;31.06;98230.69;4959637;28;970;-78
2023/10/02 01:27:41;;;;;;;;;;;;;;;21.20;31.12;98226.19;4921484;29;1007;-77
2023/10/02 01:30:16;;;;;;;;;;;;;;;21.55;30.28;98226.66;4902312;29;1134;-77
2023/10/02 01:35:48;;;;;;;;;;;;;;;21.24;31.02;98223.25;4861999;29;1137;-77
2023/10/02 01:38:14;;;;;;;;;;;;;;;21.21;31.18;98229.81;4861924;29;1010;-77
2023/10/02 01:40:43;;;;;;;;;;;;;;;21.23;31.02;98227.34;4861630;29;1402;-77
2023/10/02 01:43:16;;;;;;;;;;;;;;;21.14;31.26;98229.94;4861846;29;1284;-78
2023/10/02 01:45:45;;;;;;;;;;;;;;;21.24;30.94;98223.25;4862025;29;987;-77
2023/10/02 01:48:14;;;;;;;;;;;;;;;21.05;31.37;98233.38;4861504;29;1221;-78
2023/10/02 01:50:42;;;;;;;;;;;;;;;21.36;30.79;98222.63;4861879;29;976;-77
2023/10/02 01:53:26;;;;;;;;;;;;;;;21.39;30.51;98218.13;4861753;29;1973;-77
2023/10/02 01:55:53;;;;;;;;;;;;;;;21.64;30.31;98229.69;4876373;29;1134;-78
2023/10/02 01:58:18;;;;;;;;;;;;;;;21.45;30.33;98227.69;4868002;29;1235;-77
2023/10/02 02:00:45;;;;;;;;;;;;;;;21.55;30.09;98233.13;4911768;29;1276;-77
2023/10/02 02:03:14;;;;;;;;;;;;;;;21.22;30.96;98232.19;4949185;28;1007;-78
2023/10/02 02:05:40;;;;;;;;;;;;;;;21.42;30.33;98239.91;4979693;28;1250;-77
2023/10/02 02:08:21;;;;;;;;;;;;;;;21.25;30.64;98236.19;4955850;28;1290;-77
2023/10/02 02:10:51;;;;;;;;;;;;;;;21.26;30.62;98241.41;4956164;29;1163;-78
2023/10/02 02:13:20;;;;;;;;;;;;;;;21.24;30.72;98258.03;4955926;29;1910;-77
2023/10/02 02:15:46;;;;;;;;;;;;;;;21.07;31.19;98257.16;4956190;29;1010;-77
2023/10/02 02:18:11;;;;;;;;;;;;;;;21.38;30.57;98251.28;4936585;29;969;-78
2023/10/02 02:23:21;;;;;;;;;;;;;;;21.30;30.72;98261.97;4917344;29;1127;-77
2023/10/02 02:25:47;;;;;;;;;;;;;;;21.36;30.51;98262.25;4940375;29;1223;-78
2023/10/02 02:28:12;;;;;;;;;;;;;;;21.22;30.86;98271.81;4955525;29;1008;-77
2023/10/02 02:30:40;;;;;;;;;;;;;;;21.20;31.00;98274.28;4971789;28;1020;-77
2023/10/02 02:33:09;;;;;;;;;;;;;;;21.05;30.85;98273.00;4957842;28;1906;-77
2023/10/02 02:35:41;;;;;;;;;;;;;;;21.35;30.63;98268.34;4943525;29;1117;-77
2023/10/02 02:38:14;;;;;;;;;;;;;;;21.11;30.75;98276.91;4942247;29;1172;-77
2023/10/02 02:40:42;;;;;;;;;;;;;;;21.41;30.15;98277.94;4958860;29;959;-77
2023/10/02 02:43:19;;;;;;;;;;;;;;;21.45;30.26;98289.97;4943188;29;1308;-77
2023/10/02 02:45:47;;;;;;;;;;;;;;;21.29;30.47;98297.13;4928464;29;1010;-77
2023/10/02 02:48:15;;;;;;;;;;;;;;;21.20;30.63;98296.94;4941003;29;1337;-77
2023/10/02 02:50:41;;;;;;;;;;;;;;;21.45;30.04;98307.78;4940176;29;966;-77
2023/10/02 02:53:23;;;;;;;;;;;;;;;21.31;30.35;98308.84;4923756;29;1911;-78
2023/10/02 02:55:59;;;;;;;;;;;;;;;21.34;30.46;98312.84;4926177;29;1272;-77
2023/10/02 02:58:25;;;;;;;;;;;;;;;21.44;30.32;98305.34;4908306;29;1145;-77
2023/10/02 03:00:53;;;;;;;;;;;;;;;21.23;30.45;98307.38;4949524;28;1190;-78
2023/10/02 03:03:33;;;;;;;;;;;;;;;21.29;30.65;98311.28;4978342;28;1178;-78
2023/10/02 03:05:58;;;;;;;;;;;;;;;21.08;30.79;98306.06;4977840;28;1237;-77
2023/10/02 03:08:37;;;;;;;;;;;;;;;21.35;30.29;98313.63;4978109;28;1136;-78
2023/10/02 03:11:10;;;;;;;;;;;;;;;21.52;30.11;98312.47;4978881;28;974;-76
2023/10/02 03:13:36;;;;;;;;;;;;;;;21.45;30.12;98318.28;5021496;28;1914;-78
2023/10/02 03:16:12;;;;;;;;;;;;;;;21.30;30.50;98312.13;5021321;28;1087;-77
2023/10/02 03:18:40;;;;;;;;;;;;;;;21.35;30.26;98316.47;5005216;28;1101;-77
2023/10/02 03:23:38;;;;;;;;;;;;;;;21.44;30.05;98333.66;5001215;28;981;-77
2023/10/02 03:26:07;;;;;;;;;;;;;;;21.60;30.00;98330.91;5001110;28;986;-77
2023/10/02 03:28:33;;;;;;;;;;;;;;;21.27;30.22;98330.75;5001075;28;1029;-77
2023/10/02 03:31:00;;;;;;;;;;;;;;;21.38;30.30;98335.41;5000680;28;1155;-77
2023/10/02 03:33:31;;;;;;;;;;;;;;;21.28;30.47;98338.00;4984075;28;1906;-77
2023/10/02 03:35:58;;;;;;;;;;;;;;;21.42;30.23;98339.78;5000410;28;1102;-77
2023/10/02 03:38:26;;;;;;;;;;;;;;;21.33;30.37;98334.69;5000700;28;977;-77
2023/10/02 03:40:58;;;;;;;;;;;;;;;21.59;30.15;98340.63;5000404;28;1296;-77
2023/10/02 03:43:42;;;;;;;;;;;;;;;21.46;30.19;98337.69;4983596;28;959;-78
2023/10/02 03:46:13;;;;;;;;;;;;;;;21.57;29.98;98345.94;4977769;28;989;-77
2023/10/02 03:48:39;;;;;;;;;;;;;;;21.50;30.30;98344.06;4945910;28;929;-78
2023/10/02 03:51:04;;;;;;;;;;;;;;;21.41;30.23;98346.69;4944108;28;960;-77
2023/10/02 03:53:30;;;;;;;;;;;;;;;21.52;29.98;98346.47;4961284;28;1979;-77
2023/10/02 03:58:49;;;;;;;;;;;;;;;21.42;30.16;98353.13;4963509;28;950;-77
2023/10/02 04:01:17;;;;;;;;;;;;;;;21.58;30.09;98353.19;4961393;28;1108;-77
2023/10/02 04:04:04;;;;;;;;;;;;;;;21.39;30.28;98356.81;4945338;28;1012;-77
2023/10/02 04:06:35;;;;;;;;;;;;;;;21.26;30.73;98356.66;4964219;28;1067;-77
2023/10/02 04:11:46;;;;;;;;;;;;;;;21.50;30.37;98361.06;4947272;28;1895;-77
2023/10/02 04:14:17;;;;;;;;;;;;;;;21.36;30.44;98369.03;4976930;28;1022;-77
2023/10/02 04:16:52;;;;;;;;;;;;;;;21.31;30.64;98370.34;4938652;29;1160;-77
2023/10/02 04:19:23;;;;;;;;;;;;;;;21.33;30.33;98368.66;4922417;29;1495;-77
2023/10/02 04:21:51;;;;;;;;;;;;;;;21.21;30.65;98372.09;4938191;29;922;-78
2023/10/02 04:24:23;;;;;;;;;;;;;;;21.20;30.51;98369.72;4956063;29;996;-77
2023/10/02 04:26:53;;;;;;;;;;;;;;;21.26;30.76;98380.09;4926675;29;1245;-77
2023/10/02 04:29:29;;;;;;;;;;;;;;;21.66;30.11;98373.66;4925752;29;940;-77
2023/10/02 04:34:46;;;;;;;;;;;;;;;21.70;30.22;98375.19;4918711;29;1100;-77
2023/10/02 04:37:20;;;;;;;;;;;;;;;21.47;30.15;98383.78;4918833;29;993;-77
2023/10/02 04:39:54;;;;;;;;;;;;;;;21.47;30.25;98386.59;4918697;29;915;-77
2023/10/02 04:42:21;;;;;;;;;;;;;;;21.35;30.67;98395.72;4918837;29;854;-77
2023/10/02 04:44:48;;;;;;;;;;;;;;;21.28;30.90;98399.47;4918754;29;1030;-77
2023/10/02 04:47:20;;;;;;;;;;;;;;;21.35;30.84;98415.53;4936138;28;932;-76
2023/10/02 04:55:42;;;;;;;;;;;;;;;21.29;31.00;98415.22;4906221;29;968;-77
2023/10/02 05:00:39;;;;;;;;;;;;;;;21.44;30.60;98398.78;4903558;29;910;-78
2023/10/02 05:05:58;;;;;;;;;;;;;;;21.60;30.17;98404.53;4893365;29;1128;-78
2023/10/02 05:08:40;;;;;;;;;;;;;;;21.29;30.61;98404.69;4880411;29;1459;-77
2023/10/02 05:11:06;;;;;;;;;;;;;;;21.36;30.53;98405.84;4888989;29;1222;-78
2023/10/02 05:16:33;;;;;;;;;;;;;;;21.14;31.13;98411.03;4862255;29;1156;-77
2023/10/02 05:18:58;;;;;;;;;;;;;;;21.06;31.25;98416.03;4862191;29;1016;-78
2023/10/02 05:21:38;;;;;;;;;;;;;;;21.34;30.98;98420.41;4862169;29;1305;-77
2023/10/02 05:24:12;;;;;;;;;;;;;;;21.18;30.86;98420.28;4862213;29;1094;-77
2023/10/02 05:26:44;;;;;;;;;;;;;;;21.35;30.94;98421.19;4843503;29;1302;-77
2023/10/02 05:32:19;;;;;;;;;;;;;;;21.35;30.60;98432.50;4835929;29;1912;-77
2023/10/02 05:34:58;;;;;;;;;;;;;;;21.36;30.52;98434.13;4825123;29;971;-77
2023/10/02 05:37:34;;;;;;;;;;;;;;;21.45;30.55;98431.50;4825533;29;1175;-78
2023/10/02 05:43:09;;;;;;;;;;;;;;;21.40;30.57;98449.81;4831405;29;1162;-78
2023/10/02 05:48:27;;;;;;;;;;;;;;;21.25;30.64;98452.09;4807294;29;1051;-77
2023/10/02 05:50:59;;;;;;;;;;;;;;;21.31;30.78;98461.69;4822545;29;1195;-78
2023/10/02 05:53:34;;;;;;;;;;;;;;;21.08;31.06;98453.19;4806654;29;1925;-77
2023/10/02 05:56:12;;;;;;;;;;;;;;;20.98;31.22;98459.81;4807141;29;983;-78
2023/10/02 05:58:44;;;;;;;;;;;;;;;21.12;31.28;98464.44;4857594;29;841;-77
2023/10/02 06:01:18;;;;;;;;;;;;;;;21.32;30.86;98457.63;4862127;29;919;-78
2023/10/02 06:03:49;;;;;;;;;;;;;;;21.30;30.86;98471.44;4861601;29;1055;-78
2023/10/02 06:06:24;;;;;;;;;;;;;;;21.26;31.22;98467.84;4846644;29;1080;-77
2023/10/02 06:08:55;;;;;;;;;;;;;;;21.29;31.10;98469.78;4887548;29;1215;-78
2023/10/02 06:11:34;;;;;;;;;;;;;;;21.22;31.11;98475.56;4922258;29;955;-77
2023/10/02 06:14:13;;;;;;;;;;;;;;;21.18;31.39;98480.50;4907314;29;1899;-78
2023/10/02 06:16:42;;;;;;;;;;;;;;;21.25;31.17;98479.59;4908109;29;1007;-78
2023/10/02 06:19:14;;;;;;;;;;;;;;;21.29;30.96;98492.41;4925825;28;1045;-78
2023/10/02 06:21:45;;;;;;;;;;;;;;;21.32;31.26;98490.81;4998742;28;1057;-77
2023/10/02 06:24:18;;;;;;;;;;;;;;;21.44;31.03;98486.53;4962599;28;1136;-77
2023/10/02 06:26:49;;;;;;;;;;;;;;;21.38;30.77;98493.94;4947194;28;1207;-78
2023/10/02 06:29:22;;;;;;;;;;;;;;;21.36;30.76;98499.25;4978939;28;1036;-78
2023/10/02 06:32:05;;;;;;;;;;;;;;;21.05;31.29;98494.47;4963439;28;1902;-78
2023/10/02 06:34:37;;;;;;;;;;;;;;;21.27;31.36;98499.75;4962688;28;1042;-77
2023/10/02 06:37:11;;;;;;;;;;;;;;;21.09;31.07;98514.22;4963480;28;1017;-78
2023/10/02 06:39:38;;;;;;;;;;;;;;;21.28;30.88;98512.69;4963509;28;1068;-78
2023/10/02 06:42:07;;;;;;;;;;;;;;;21.43;30.85;98507.59;4946890;28;1322;-78
2023/10/02 06:44:41;;;;;;;;;;;;;;;21.25;30.99;98517.19;4940177;29;1016;-78
2023/10/02 06:47:13;;;;;;;;;;;;;;;21.29;31.29;98503.75;4924628;29;1005;-78
2023/10/02 06:49:39;;;;;;;;;;;;;;;21.30;31.16;98507.44;4924746;29;993;-78
2023/10/02 06:52:17;;;;;;;;;;;;;;;21.20;31.33;98517.66;4913676;29;1978;-79
2023/10/02 06:54:44;;;;;;;;;;;;;;;21.17;31.11;98510.03;4944840;29;958;-77
2023/10/02 06:57:11;;;;;;;;;;;;;;;21.08;31.66;98512.59;4902185;29;1128;-78
2023/10/02 06:59:38;;;;;;;;;;;;;;;20.93;31.82;98520.50;4870776;29;1023;-78
2023/10/02 07:02:06;;;;;;;;;;;;;;;21.48;30.79;98510.72;4912080;29;942;-78
2023/10/02 07:04:36;;;;;;;;;;;;;;;21.24;31.08;98518.41;4924597;29;996;-77
2023/10/02 07:07:07;;;;;;;;;;;;;;;21.30;31.27;98511.06;4924760;29;1123;-78
2023/10/02 07:09:36;;;;;;;;;;;;;;;21.42;31.08;98518.13;4939535;29;1052;-78
2023/10/02 07:12:14;;;;;;;;;;;;;;;21.40;30.78;98520.59;4939764;29;1949;-78
2023/10/02 07:14:41;;;;;;;;;;;;;;;21.28;31.03;98513.47;4930879;28;938;-78
2023/10/02 07:17:16;;;;;;;;;;;;;;;21.44;30.97;98520.50;4978293;28;997;-77
2023/10/02 07:19:50;;;;;;;;;;;;;;;21.21;31.40;98524.13;4938179;29;1025;-78
2023/10/02 07:22:22;;;;;;;;;;;;;;;21.22;31.37;98520.84;4924601;29;1057;-78
2023/10/02 07:24:47;;;;;;;;;;;;;;;21.40;31.09;98519.78;4939250;29;949;-79
2023/10/02 07:27:27;;;;;;;;;;;;;;;21.32;31.01;98525.56;4939677;29;1042;-77
2023/10/02 07:29:56;;;;;;;;;;;;;;;21.29;31.19;98531.25;4925077;29;1130;-78
2023/10/02 07:32:22;;;;;;;;;;;;;;;21.38;31.18;98528.69;4923709;29;1903;-78
2023/10/02 07:34:50;;;;;;;;;;;;;;;21.54;30.76;98530.84;4962018;28;1027;-77
2023/10/02 07:37:21;;;;;;;;;;;;;;;21.38;30.89;98539.22;4977948;28;1140;-78
2023/10/02 07:39:48;;;;;;;;;;;;;;;21.00;31.56;98542.25;4977908;28;899;-78
2023/10/02 07:42:16;;;;;;;;;;;;;;;21.21;31.37;98549.59;4978166;28;1004;-77
2023/10/02 07:44:41;;;;;;;;;;;;;;;21.40;30.97;98553.75;4977584;28;980;-77
2023/10/02 07:47:10;;;;;;;;;;;;;;;21.25;31.49;98564.50;4977506;28;1093;-77
2023/10/02 07:49:39;;;;;;;;;;;;;;;21.17;31.19;98563.78;4966420;28;1064;-77
2023/10/02 07:52:08;;;;;;;;;;;;;;;20.98;31.74;98572.97;4985447;28;1910;-78
2023/10/02 07:54:48;;;;;;;;;;;;;;;21.37;31.00;98571.59;5001675;28;914;-78
2023/10/02 07:57:13;;;;;;;;;;;;;;;21.27;31.31;98568.47;5018860;28;895;-77
2023/10/02 07:59:40;;;;;;;;;;;;;;;21.31;31.25;98572.09;5018416;28;1084;-77
2023/10/02 08:02:21;;;;;;;;;;;;;;;21.30;31.44;98573.31;4985215;28;1027;-78
2023/10/02 08:04:48;;;;;;;;;;;;;;;20.85;31.95;98569.16;5018827;28;1021;-78
2023/10/02 08:07:13;;;;;;;;;;;;;;;21.23;31.40;98564.91;5038345;28;1093;-78
2023/10/02 08:09:40;;;;;;;;;;;;;;;21.18;31.17;98561.75;5038259;28;917;-79
2023/10/02 08:12:08;;;;;;;;;;;;;;;21.40;31.06;98579.22;5038243;28;1972;-77
2023/10/02 08:14:42;;;;;;;;;;;;;;;21.46;30.96;98569.84;5004265;28;979;-78
2023/10/02 08:17:17;;;;;;;;;;;;;;;21.38;31.17;98567.53;5022109;28;926;-77
2023/10/02 08:19:54;;;;;;;;;;;;;;;21.28;31.34;98575.75;5021907;28;925;-78
2023/10/02 08:22:20;;;;;;;;;;;;;;;21.33;31.34;98571.66;5021958;28;923;-77
2023/10/02 08:24:45;;;;;;;;;;;;;;;21.38;31.19;98578.84;5020290;28;944;-78
2023/10/02 08:27:14;;;;;;;;;;;;;;;21.26;31.43;98572.56;5038187;28;991;-77
2023/10/02 08:29:41;;;;;;;;;;;;;;;21.40;31.22;98570.72;5019880;28;958;-78
2023/10/02 08:32:07;;;;;;;;;;;;;;;21.29;31.31;98566.00;5020470;28;1972;-77
2023/10/02 08:34:32;;;;;;;;;;;;;;;21.14;31.61;98570.34;5020047;28;1061;-78
2023/10/02 08:37:05;;;;;;;;;;;;;;;21.21;31.41;98570.22;5037658;28;1474;-78
2023/10/02 08:39:36;;;;;;;;;;;;;;;21.09;31.55;98562.31;5037137;28;949;-78
2023/10/02 08:42:22;;;;;;;;;;;;;;;21.02;31.61;98562.41;5037982;28;826;-78
2023/10/02 08:44:49;;;;;;;;;;;;;;;21.05;31.75;98567.22;5019529;28;890;-79
2023/10/02 08:47:24;;;;;;;;;;;;;;;21.03;31.80;98552.69;5019857;28;941;-78
2023/10/02 08:50:03;;;;;;;;;;;;;;;21.23;31.36;98567.72;5004721;28;945;-78
2023/10/02 08:52:38;;;;;;;;;;;;;;;21.38;31.12;98564.72;5004733;28;1985;-78
2023/10/02 08:55:51;;;;;;;;;;;;;;;21.21;31.78;98564.53;5020875;28;1031;-78
2023/10/02 08:58:20;;;;;;;;;;;;;;;21.16;32.00;98565.03;5036831;28;1042;-78
2023/10/02 09:03:42;;;;;;;;;;;;;;;21.24;31.37;98558.03;5037044;28;841;-78
2023/10/02 09:06:31;;;;;;;;;;;;;;;21.33;31.60;98558.31;5000258;28;1019;-78
2023/10/02 09:11:41;;;;;;;;;;;;;;;21.53;31.16;98564.03;5016138;28;886;-78
2023/10/02 09:16:48;;;;;;;;;;;;;;;21.71;30.42;98580.72;5016054;28;925;-78
2023/10/02 09:19:31;;;;;;;;;;;;;;;21.47;30.93;98576.28;4994612;28;1287;-78
2023/10/02 09:22:06;;;;;;;;;;;;;;;21.47;31.01;98570.63;4980549;28;907;-79
2023/10/02 09:24:34;;;;;;;;;;;;;;;21.36;31.11;98581.34;4980108;28;1252;-78
2023/10/02 09:29:47;;;;;;;;;;;;;;;21.29;31.26;98583.00;4947389;28;1098;-78
2023/10/02 09:32:21;;;;;;;;;;;;;;;21.22;31.68;98579.50;4959423;28;1973;-77
2023/10/02 09:35:10;;;;;;;;;;;;;;;21.40;30.90;98577.22;4944569;28;1010;-78
2023/10/02 09:37:37;;;;;;;;;;;;;;;21.53;31.03;98580.22;4962024;28;1178;-79
2023/10/02 09:40:03;;;;;;;;;;;;;;;21.25;31.54;98573.78;4959535;28;981;-78
2023/10/02 09:42:33;;;;;;;;;;;;;;;21.42;31.28;98573.94;4958587;28;941;-78
2023/10/02 09:45:08;;;;;;;;;;;;;;;21.62;31.04;98583.31;4959888;28;956;-78
2023/10/02 09:47:34;;;;;;;;;;;;;;;21.54;30.89;98576.16;4960716;28;888;-78
2023/10/02 09:50:10;;;;;;;;;;;;;;;21.44;31.15;98571.47;4992120;28;906;-78
2023/10/02 09:52:39;;;;;;;;;;;;;;;21.58;31.05;98572.03;5014315;28;1910;-75
2023/10/02 09:55:10;;;;;;;;;;;;;;;21.30;31.77;98566.88;5014210;28;917;-76
2023/10/02 09:57:39;;;;;;;;;;;;;;;21.21;31.54;98566.56;5018051;28;964;-75
2023/10/02 10:03:14;;;;;;;;;;;;;;;21.57;30.99;98567.59;5016103;28;1161;-75
2023/10/02 10:06:05;;;;;;;;;;;;;;;21.33;31.63;98560.34;4994370;28;1078;-76
2023/10/02 10:09:18;;;;;;;;;;;;;;;21.61;30.90;98570.38;4994192;28;1308;-76
2023/10/02 10:11:36;;;;;;;;;;;;;;;21.49;31.55;98556.81;4981143;28;1073;-76
2023/10/02 10:14:35;;;;;;;;;;;;;;;21.38;31.54;98557.00;4978163;28;1906;-75
2023/10/02 10:17:12;;;;;;;;;;;;;;;21.62;31.23;98560.66;4996604;28;2015;-76
2023/10/02 10:20:18;;;;;;;;;;;;;;;21.53;31.54;98557.56;4981350;28;1020;-75
2023/10/02 10:22:50;;;;;;;;;;;;;;;21.73;31.09;98554.78;4936174;29;1102;-76
2023/10/02 10:30:24;;;;;;;;;;;;;;;21.38;31.92;98556.22;4901713;29;1322;-75
2023/10/02 10:33:15;;;;;;;;;;;;;;;21.46;31.54;98557.72;4917204;29;1918;-75
2023/10/02 10:35:57;;;;;;;;;;;;;;;21.60;31.16;98546.09;4901615;29;1052;-75
2023/10/02 10:38:41;;;;;;;;;;;;;;;21.54;31.55;98547.84;4887236;29;1072;-76
2023/10/02 10:41:09;;;;;;;;;;;;;;;21.49;31.35;98540.63;4917645;29;1024;-76
2023/10/02 10:43:56;;;;;;;;;;;;;;;21.30;31.68;98549.88;4934154;29;1028;-76
2023/10/02 10:46:24;;;;;;;;;;;;;;;21.43;31.42;98541.56;4925801;29;1033;-75
2023/10/02 10:49:08;;;;;;;;;;;;;;;21.37;31.50;98543.28;4939039;29;990;-77
2023/10/02 10:51:37;;;;;;;;;;;;;;;21.16;31.89;98544.41;4939310;29;928;-76
2023/10/02 10:54:12;;;;;;;;;;;;;;;21.25;31.63;98531.34;4941721;29;1985;-75
2023/10/02 10:56:44;;;;;;;;;;;;;;;21.20;31.51;98545.97;4956529;28;1166;-75
2023/10/02 10:59:21;;;;;;;;;;;;;;;21.31;31.48;98545.81;4987057;28;1172;-76
2023/10/02 11:01:49;;;;;;;;;;;;;;;21.17;31.40;98540.34;5037804;28;874;-77
2023/10/02 11:04:26;;;;;;;;;;;;;;;21.38;31.20;98530.75;5037757;28;728;-76
2023/10/02 11:06:52;;;;;;;;;;;;;;;21.51;30.90;98528.91;5025289;28;1046;-77
2023/10/02 11:09:18;;;;;;;;;;;;;;;21.48;30.96;98539.03;5024556;28;1229;-77
2023/10/02 11:11:49;;;;;;;;;;;;;;;21.33;31.12;98537.69;5016680;28;942;-76
2023/10/02 11:14:20;;;;;;;;;;;;;;;21.37;30.82;98527.13;4984714;28;1980;-77
2023/10/02 11:16:53;;;;;;;;;;;;;;;21.59;30.51;98536.00;4985037;28;784;-77
2023/10/02 11:22:01;;;;;;;;;;;;;;;21.35;30.92;98534.41;4983989;28;942;-77
2023/10/02 11:24:26;;;;;;;;;;;;;;;21.42;30.83;98534.31;4999974;28;738;-76
2023/10/02 11:26:54;;;;;;;;;;;;;;;21.57;30.37;98536.47;4999968;28;1299;-76
2023/10/02 11:29:23;;;;;;;;;;;;;;;21.22;31.12;98543.50;4984129;28;956;-77
2023/10/02 11:32:22;;;;;;;;;;;;;;;21.56;30.50;98540.53;5000236;28;830;-76
2023/10/02 11:34:49;;;;;;;;;;;;;;;21.44;30.55;98529.00;4986570;28;755;-77
2023/10/02 11:37:14;;;;;;;;;;;;;;;21.27;30.86;98539.38;4999819;28;983;-77
2023/10/02 11:39:40;;;;;;;;;;;;;;;21.47;30.55;98536.66;5000200;28;728;-77
2023/10/02 11:42:07;;;;;;;;;;;;;;;21.33;30.60;98537.69;5010363;28;885;-76
2023/10/02 11:44:32;;;;;;;;;;;;;;;21.41;30.61;98527.06;5040371;28;949;-76
2023/10/02 11:46:59;;;;;;;;;;;;;;;21.45;30.53;98528.59;5058230;28;919;-76
2023/10/02 11:49:27;;;;;;;;;;;;;;;21.51;30.41;98537.41;5040227;28;885;-77
2023/10/02 11:51:52;;;;;;;;;;;;;;;21.52;30.43;98545.44;5058139;28;704;-77
2023/10/02 11:54:18;;;;;;;;;;;;;;;21.40;30.75;98531.09;5057729;28;1913;-77
2023/10/02 11:56:46;;;;;;;;;;;;;;;21.57;30.36;98536.47;5058074;28;814;-77
2023/10/02 11:59:14;;;;;;;;;;;;;;;21.25;30.92;98525.66;5024144;28;688;-76
2023/10/02 12:01:40;;;;;;;;;;;;;;;21.21;31.06;98536.25;5023317;28;805;-77
2023/10/02 12:04:06;;;;;;;;;;;;;;;21.16;31.26;98528.25;5039366;28;723;-76
2023/10/02 12:06:32;;;;;;;;;;;;;;;21.25;31.08;98542.66;5040204;28;1049;-77
2023/10/02 12:09:01;;;;;;;;;;;;;;;21.33;30.83;98530.00;5040064;28;712;-77
2023/10/02 12:11:28;;;;;;;;;;;;;;;21.49;30.38;98534.19;5039794;28;1260;-76
2023/10/02 12:13:53;;;;;;;;;;;;;;;21.41;30.61;98538.38;5039328;28;1977;-77
2023/10/02 12:16:21;;;;;;;;;;;;;;;21.39;30.23;98541.63;5035028;28;1266;-76
2023/10/02 12:18:47;;;;;;;;;;;;;;;21.33;30.45;98537.69;5019075;28;805;-77
2023/10/02 12:21:14;;;;;;;;;;;;;;;21.26;30.66;98538.59;5018932;28;797;-77
2023/10/02 12:23:43;;;;;;;;;;;;;;;21.67;29.94;98533.88;5035091;28;850;-77
2023/10/02 12:26:19;;;;;;;;;;;;;;;21.56;29.95;98539.72;5002525;28;712;-76
2023/10/02 12:28:45;;;;;;;;;;;;;;;21.58;30.20;98542.91;5018631;28;939;-77
2023/10/02 12:31:12;;;;;;;;;;;;;;;21.58;30.08;98548.59;5018374;28;751;-76
2023/10/02 12:33:38;;;;;;;;;;;;;;;21.44;30.21;98540.34;5001887;28;1973;-77
2023/10/02 12:36:15;;;;;;;;;;;;;;;21.35;30.16;98546.56;5002179;28;731;-77
2023/10/02 12:38:40;;;;;;;;;;;;;;;21.43;30.36;98531.03;5018389;28;740;-77
2023/10/02 12:41:22;;;;;;;;;;;;;;;21.47;30.04;98539.47;5034768;28;1216;-76
2023/10/02 12:43:48;;;;;;;;;;;;;;;21.24;30.42;98535.41;5014326;28;992;-77
2023/10/02 12:46:16;;;;;;;;;;;;;;;21.40;30.43;98539.59;5015004;28;830;-77
2023/10/02 12:48:42;;;;;;;;;;;;;;;21.36;30.46;98536.03;4998135;28;1006;-77
2023/10/02 12:51:09;;;;;;;;;;;;;;;21.38;30.22;98539.22;5015097;28;853;-76
2023/10/02 12:53:36;;;;;;;;;;;;;;;21.52;30.11;98539.00;5014214;28;1906;-76
2023/10/02 12:56:02;;;;;;;;;;;;;;;21.39;30.15;98535.16;4998392;28;795;-76
2023/10/02 12:58:27;;;;;;;;;;;;;;;21.46;30.27;98529.41;5014787;28;925;-77
2023/10/02 13:00:56;;;;;;;;;;;;;;;21.53;30.23;98523.59;4982010;28;759;-77
2023/10/02 13:03:21;;;;;;;;;;;;;;;21.57;30.06;98530.78;5014580;28;814;-77
2023/10/02 13:05:47;;;;;;;;;;;;;;;21.47;30.08;98531.00;4998496;28;1193;-76
2023/10/02 13:08:13;;;;;;;;;;;;;;;21.39;30.08;98535.97;5014623;28;776;-76
2023/10/02 13:10:39;;;;;;;;;;;;;;;21.55;29.83;98532.44;4998236;28;834;-76
2023/10/02 13:13:05;;;;;;;;;;;;;;;21.35;30.11;98534.41;4998071;28;1975;-76
2023/10/02 13:15:32;;;;;;;;;;;;;;;21.37;29.87;98544.09;5048394;28;759;-77
2023/10/02 13:17:58;;;;;;;;;;;;;;;21.39;30.01;98533.13;5038252;28;748;-77
2023/10/02 13:20:23;;;;;;;;;;;;;;;21.31;30.33;98540.97;5038761;28;825;-76
2023/10/02 13:22:53;;;;;;;;;;;;;;;21.29;30.32;98537.72;5056376;28;719;-77
2023/10/02 13:25:22;;;;;;;;;;;;;;;21.23;30.55;98539.44;5038007;28;1488;-77
2023/10/02 13:27:50;;;;;;;;;;;;;;;21.06;30.85;98549.03;5056430;28;813;-77
2023/10/02 13:30:25;;;;;;;;;;;;;;;21.53;30.17;98534.91;5038278;28;747;-76
2023/10/02 13:32:56;;;;;;;;;;;;;;;21.48;29.91;98544.72;5038558;28;1906;-76
2023/10/02 13:35:21;;;;;;;;;;;;;;;21.54;29.87;98539.34;5038181;28;858;-76
2023/10/02 13:37:47;;;;;;;;;;;;;;;21.60;29.95;98540.44;5021861;28;716;-77
2023/10/02 13:40:25;;;;;;;;;;;;;;;21.37;30.06;98548.97;5038337;28;1146;-77
2023/10/02 13:42:51;;;;;;;;;;;;;;;21.37;29.98;98548.97;5021785;28;1247;-77
2023/10/02 13:45:20;;;;;;;;;;;;;;;21.39;29.95;98541.63;5038525;28;727;-76
2023/10/02 13:47:46;;;;;;;;;;;;;;;21.16;30.46;98542.38;5022193;28;1254;-77
2023/10/02 13:50:11;;;;;;;;;;;;;;;21.33;29.78;98535.66;5037740;28;1220;-77
2023/10/02 13:52:38;;;;;;;;;;;;;;;21.27;30.09;98540.19;5038136;28;1902;-77
2023/10/02 13:55:19;;;;;;;;;;;;;;;21.35;30.12;98540.06;5021888;28;774;-77
2023/10/02 13:57:45;;;;;;;;;;;;;;;21.35;29.92;98542.91;5055571;28;865;-77
2023/10/02 14:00:11;;;;;;;;;;;;;;;21.17;30.51;98546.81;5037729;28;763;-77
2023/10/02 14:02:40;;;;;;;;;;;;;;;21.25;30.23;98547.50;5055659;28;731;-77
2023/10/02 14:05:06;;;;;;;;;;;;;;;21.29;29.93;98548.22;5022204;28;1186;-76
2023/10/02 14:07:33;;;;;;;;;;;;;;;21.58;29.56;98559.91;5038251;28;1081;-77
2023/10/02 14:09:58;;;;;;;;;;;;;;;21.42;29.81;98569.09;5037945;28;1232;-77
2023/10/02 14:12:26;;;;;;;;;;;;;;;21.31;30.06;98569.25;5055626;28;1894;-76
2023/10/02 14:14:53;;;;;;;;;;;;;;;21.18;30.32;98562.56;5021901;28;1231;-77
2023/10/02 14:17:19;;;;;;;;;;;;;;;21.11;30.40;98564.72;5038031;28;876;-76
2023/10/02 14:19:44;;;;;;;;;;;;;;;21.15;30.28;98569.09;5005299;28;1100;-77
2023/10/02 14:22:12;;;;;;;;;;;;;;;21.24;30.38;98569.34;5038254;28;813;-77
2023/10/02 14:24:37;;;;;;;;;;;;;;;21.32;30.21;98565.19;5037789;28;794;-77